Saint Louis, MO

10:06 AM CDT on April 28, 2015 (GMT -0500)
Lambert-Saint Louis International | | Change Station
CLOSE
Current Station
Airport
Location: St. Louis,
Elevation: 564 ft
Nearby Weather Stations

Elev 564 ft 38.75 °N, 90.37 °W | Updated 15 minutes ago

Clear
Clear
57 °F
Feels Like 57 °F
N
7
Wind Variable Wind from NE

Today
High -- | Low -- °F
--% Chance of Precip.
Yesterday
High -- | Low -- °F
Precip. -- in
6:07 AM 7:49 PM
Waxing Gibbous, 74% visible
Pressure 30.13 in
Visibility 10.0 miles
Clouds Few 25000 ft
Dew Point 37 °F
Humidity 47%
Rainfall 0.00 in
Snow Depth Not available.
UV 5 out of 12
Pollen 9.70 out of 12
Air Quality Not available.
Flu Activity Local Activity
METAR KSTL 281451Z 05006KT 10SM FEW250 14/03 A3013 RMK AO2 SLP202 T01390028 50001 $

More Conditions Fewer Conditions

Pressure 30.13 in
Visibility 10.0 miles
Clouds Few 25000 ft
Dew Point 37 °F
Humidity 47%
Rainfall 0.00 in
Snow Depth Not available.
UV 5 out of 12
Pollen 9.70 out of 12
Air Quality Not available.
Flu Activity Local Activity
METAR KSTL 281451Z 05006KT 10SM FEW250 14/03 A3013 RMK AO2 SLP202 T01390028 50001 $

More Conditions Fewer Conditions

10-Day Weather Forecast

Almanac

Astronomy

Apr. 28, 2015 Rise Set
Actual Time
Civil Twilight
Nautical Twilight
Astronomical Twilight
Moon
Length of Visible Light
Length of Day
Tomorrow will be .
, % of the Moon is Illuminated

Today's Extremes

State Highs State Lows

Community

WunderPhotos

Upload Photos

1,817,661 photos uploaded!

WunderBlogs® & News

Nearby

Air Quality

  Air Quality AQ Index Pollutant
Not available.

Snow Depth

Station Depth Elevation

Earthquake Activity

City Distance Mag. Time & Date
Minimum magnitude displayed is 2.5.

Coastal Water Temperatures

Place Temperature

Stations

Nearby Weather Stations

Station Location Temp. Windchill Dew Point Humidity Wind Precip. Elev Updated Type